Helen Parker — WDC6715 — position and weather

sailwx.info

Track history (hours):
 
Tides and Currents Weather Stations Pressure Air Temp Water Temp Dewpoint Dewpoint Depression Visibility Wind Speed Wind Dir Waves Ship Positions

Helen Parker

Owner: Brewster Marine LLC, Forked River, NJ. More information available from US FCC via Universal Licensing System and Coast Guard Vessel Documentation Center.

Last reported at 2017-Nov-16 21:39 UTC. Time now 2017-Nov-20 04:01 UTC.
Position N 40°39' W 074°10'.

Length 14 m.

Type: Other ship. MMSI: 367060270.

Date/timePositionNaut miles runAvg speedWind from/ knotsBaromVisibWave heightAir tempDewpointWater temp
2017-Nov-16 21:39N 40°39' W 074°10'1 6.6
2017-Nov-16 21:29N 40°39' W 074°12'1 1.4
2017-Nov-16 21:00N 40°39' W 074°11'3 6.4
2017-Nov-16 20:30N 40°39' W 074°07'2 4.5
2017-Nov-16 20:00N 40°38' W 074°04'1 1.2
2017-Nov-16 19:30N 40°38' W 074°04'3 6.4
2017-Nov-16 19:00N 40°39' W 074°08'2 4.9
2017-Nov-16 18:30N 40°39' W 074°12'2 3.4
2017-Nov-16 18:00N 40°39' W 074°09'2 4.2
2017-Nov-16 17:30N 40°39' W 074°07'2 4.2
2017-Nov-16 17:00N 40°40' W 074°04'2 4.8
2017-Nov-16 16:30N 40°40' W 074°01'2 3.5
2017-Nov-16 16:00N 40°40' W 074°03'4 8.4
2017-Nov-16 15:30N 40°39' W 074°08'2 4.6
2017-Nov-16 15:00N 40°39' W 074°12'2 3.4
2017-Nov-16 14:30N 40°37' W 074°12'2 3.7
2017-Nov-16 14:00N 40°35' W 074°12'1 0.5
2017-Nov-16 11:30N 40°34' W 074°13'3 7.0
2017-Nov-16 11:00N 40°37' W 074°12'2 4.7
2017-Nov-16 10:30N 40°39' W 074°10'0 0.0
2017-Nov-15 13:45N 40°39' W 074°10'1 2.8
2017-Nov-15 13:30N 40°39' W 074°11'3 6.5
2017-Nov-15 13:00N 40°39' W 074°07'3 6.4
2017-Nov-15 12:31N 40°40' W 074°03'4 7.0
2017-Nov-15 12:01N 40°43' W 074°02'0 0.5
2017-Nov-15 11:30N 40°44' W 074°02'0 0.2
2017-Nov-15 11:01N 40°44' W 074°02'0 0.2
2017-Nov-15 10:30N 40°44' W 074°02'4 8.1
2017-Nov-15 10:00N 40°40' W 074°03'4 7.3
2017-Nov-15 09:30N 40°39' W 074°08'2 3.8
2017-Nov-15 09:00N 40°39' W 074°10'0 0.0
2017-Nov-14 20:23N 40°39' W 074°10'3 6.8
2017-Nov-14 20:00N 40°39' W 074°07'4 8.0
2017-Nov-14 19:30N 40°40' W 074°02'2 3.2
2017-Nov-14 19:01N 40°41' W 074°00'2 3.8
2017-Nov-14 18:31N 40°40' W 074°01'2 4.0
2017-Nov-14 18:01N 40°39' W 074°04'2 3.7
2017-Nov-14 17:31N 40°39' W 074°06'2 4.0
2017-Nov-14 17:00N 40°38' W 074°09'2 3.9
2017-Nov-14 16:30N 40°39' W 074°11'0 0.1
2017-Nov-14 16:00N 40°39' W 074°12'3 5.3
2017-Nov-14 15:31N 40°39' W 074°08'2 4.7
2017-Nov-14 15:00N 40°39' W 074°05'4 7.2
2017-Nov-14 14:30N 40°41' W 074°01'1 2.0
2017-Nov-14 14:01N 40°42' W 074°00'5 9.1
2017-Nov-14 13:31N 40°46' W 073°57'1 2.2
2017-Nov-14 12:59N 40°47' W 073°57'0 0.0
2017-Nov-14 12:20N 40°47' W 073°57'0 0.0
2017-Nov-14 12:00N 40°47' W 073°57'3 5.3
2017-Nov-14 11:30N 40°44' W 073°58'4 7.6
2017-Nov-14 11:00N 40°41' W 074°01'4 8.0
2017-Nov-14 10:31N 40°39' W 074°05'4 7.7
2017-Nov-14 10:00N 40°39' W 074°10'0 0.7
2017-Nov-14 09:31N 40°39' W 074°10'0 0.0
2017-Nov-14 09:01N 40°39' W 074°10'0 0.0
2017-Nov-13 22:29N 40°39' W 074°10'3 6.0
2017-Nov-13 22:00N 40°39' W 074°07'  
2017-Nov-08 22:42N 40°39' W 074°10'1 5.5
2017-Nov-08 22:30N 40°39' W 074°11'0 0.2
2017-Nov-08 22:00N 40°39' W 074°12'2 3.6
2017-Nov-08 21:30N 40°39' W 074°09'2 3.7
2017-Nov-08 21:01N 40°39' W 074°07'2 3.4
2017-Nov-08 20:31N 40°39' W 074°05'3 5.4
2017-Nov-08 20:01N 40°41' W 074°02'2 4.7
2017-Nov-08 19:31N 40°44' W 074°02'2 3.7
2017-Nov-08 19:01N 40°42' W 074°00'1 2.3
2017-Nov-08 18:31N 40°42' W 073°59'0 0.2
2017-Nov-08 18:01N 40°42' W 073°59'0 0.7
2017-Nov-08 17:31N 40°43' W 073°58'2 4.6
2017-Nov-08 17:01N 40°43' W 074°01'1 2.4
2017-Nov-08 16:30N 40°44' W 074°02'0 0.1
2017-Nov-08 16:00N 40°44' W 074°02'0 0.1
2017-Nov-08 15:31N 40°44' W 074°02'1 1.1
2017-Nov-08 15:01N 40°43' W 074°01'2 4.3
2017-Nov-08 14:31N 40°42' W 073°59'0 0.5
2017-Nov-08 14:01N 40°42' W 073°59'1 2.8
2017-Nov-08 13:31N 40°44' W 073°58'2 3.8
2017-Nov-08 13:00N 40°45' W 073°57'1 2.7
2017-Nov-08 12:30N 40°47' W 073°56'0 0.6
2017-Nov-08 12:00N 40°47' W 073°57'0 0.2
2017-Nov-08 11:30N 40°47' W 073°56'2 3.9
2017-Nov-08 11:01N 40°45' W 073°58'2 3.7
2017-Nov-08 10:31N 40°43' W 073°58'1 2.6
2017-Nov-08 10:00N 40°42' W 073°59'1 2.8
2017-Nov-08 09:31N 40°41' W 074°00'0 0.9
2017-Nov-08 09:01N 40°41' W 074°01'3 5.2
2017-Nov-08 08:31N 40°40' W 074°04'3 5.7
2017-Nov-08 08:01N 40°39' W 074°07'2 4.6
2017-Nov-08 07:30N 40°39' W 074°10'0 0.0
2017-Nov-07 19:37N 40°39' W 074°10'1 4.8
2017-Nov-07 19:30N 40°39' W 074°10'3 6.4
2017-Nov-07 19:00N 40°39' W 074°06'4 8.5
2017-Nov-07 18:30N 40°41' W 074°01'5 9.6
2017-Nov-07 18:00N 40°45' W 073°58'2 3.3
2017-Nov-07 17:29N 40°47' W 073°57'0 0.1
2017-Nov-07 17:00N 40°47' W 073°57'0 0.1
2017-Nov-07 16:27N 40°47' W 073°57'1 3.1
2017-Nov-07 16:00N 40°46' W 073°57'4 8.2
2017-Nov-07 15:30N 40°42' W 074°00'4 7.1
2017-Nov-07 15:00N 40°40' W 074°04'3 6.7
2017-Nov-07 14:30N 40°39' W 074°08'2 3.6
2017-Nov-07 14:00N 40°39' W 074°10'0 0.0
2017-Nov-07 13:30N 40°39' W 074°10'  
Track history (hours):
 
Tides and Currents Weather Stations Pressure Air Temp Water Temp Dewpoint Dewpoint Depression Visibility Wind Speed Wind Dir Waves Ship Positions

Helen Parker

Owner: Brewster Marine LLC, Forked River, NJ. More information available from US FCC via Universal Licensing System and Coast Guard Vessel Documentation Center.

Last reported at 2017-Nov-16 21:39 UTC. Time now 2017-Nov-20 04:01 UTC.
Position N 40°39' W 074°10'.

Length 14 m.

Type: Other ship. MMSI: 367060270.

Date/timePositionNaut miles runAvg speedWind from/ knotsBaromVisibWave heightAir tempDewpointWater temp
2017-Nov-16 21:39N 40°39' W 074°10'1 6.6
2017-Nov-16 21:29N 40°39' W 074°12'1 1.4
2017-Nov-16 21:00N 40°39' W 074°11'3 6.4
2017-Nov-16 20:30N 40°39' W 074°07'2 4.5
2017-Nov-16 20:00N 40°38' W 074°04'1 1.2
2017-Nov-16 19:30N 40°38' W 074°04'3 6.4
2017-Nov-16 19:00N 40°39' W 074°08'2 4.9
2017-Nov-16 18:30N 40°39' W 074°12'2 3.4
2017-Nov-16 18:00N 40°39' W 074°09'2 4.2
2017-Nov-16 17:30N 40°39' W 074°07'2 4.2
2017-Nov-16 17:00N 40°40' W 074°04'2 4.8
2017-Nov-16 16:30N 40°40' W 074°01'2 3.5
2017-Nov-16 16:00N 40°40' W 074°03'4 8.4
2017-Nov-16 15:30N 40°39' W 074°08'2 4.6
2017-Nov-16 15:00N 40°39' W 074°12'2 3.4
2017-Nov-16 14:30N 40°37' W 074°12'2 3.7
2017-Nov-16 14:00N 40°35' W 074°12'1 0.5
2017-Nov-16 11:30N 40°34' W 074°13'3 7.0
2017-Nov-16 11:00N 40°37' W 074°12'2 4.7
2017-Nov-16 10:30N 40°39' W 074°10'0 0.0
2017-Nov-15 13:45N 40°39' W 074°10'1 2.8
2017-Nov-15 13:30N 40°39' W 074°11'3 6.5
2017-Nov-15 13:00N 40°39' W 074°07'3 6.4
2017-Nov-15 12:31N 40°40' W 074°03'4 7.0
2017-Nov-15 12:01N 40°43' W 074°02'0 0.5
2017-Nov-15 11:30N 40°44' W 074°02'0 0.2
2017-Nov-15 11:01N 40°44' W 074°02'0 0.2
2017-Nov-15 10:30N 40°44' W 074°02'4 8.1
2017-Nov-15 10:00N 40°40' W 074°03'4 7.3
2017-Nov-15 09:30N 40°39' W 074°08'2 3.8
2017-Nov-15 09:00N 40°39' W 074°10'0 0.0
2017-Nov-14 20:23N 40°39' W 074°10'3 6.8
2017-Nov-14 20:00N 40°39' W 074°07'4 8.0
2017-Nov-14 19:30N 40°40' W 074°02'2 3.2
2017-Nov-14 19:01N 40°41' W 074°00'2 3.8
2017-Nov-14 18:31N 40°40' W 074°01'2 4.0
2017-Nov-14 18:01N 40°39' W 074°04'2 3.7
2017-Nov-14 17:31N 40°39' W 074°06'2 4.0
2017-Nov-14 17:00N 40°38' W 074°09'2 3.9
2017-Nov-14 16:30N 40°39' W 074°11'0 0.1
2017-Nov-14 16:00N 40°39' W 074°12'3 5.3
2017-Nov-14 15:31N 40°39' W 074°08'2 4.7
2017-Nov-14 15:00N 40°39' W 074°05'4 7.2
2017-Nov-14 14:30N 40°41' W 074°01'1 2.0
2017-Nov-14 14:01N 40°42' W 074°00'5 9.1
2017-Nov-14 13:31N 40°46' W 073°57'1 2.2
2017-Nov-14 12:59N 40°47' W 073°57'0 0.0
2017-Nov-14 12:20N 40°47' W 073°57'0 0.0
2017-Nov-14 12:00N 40°47' W 073°57'3 5.3
2017-Nov-14 11:30N 40°44' W 073°58'4 7.6
2017-Nov-14 11:00N 40°41' W 074°01'4 8.0
2017-Nov-14 10:31N 40°39' W 074°05'4 7.7
2017-Nov-14 10:00N 40°39' W 074°10'0 0.7
2017-Nov-14 09:31N 40°39' W 074°10'0 0.0
2017-Nov-14 09:01N 40°39' W 074°10'0 0.0
2017-Nov-13 22:29N 40°39' W 074°10'3 6.0
2017-Nov-13 22:00N 40°39' W 074°07'  
2017-Nov-08 22:42N 40°39' W 074°10'1 5.5
2017-Nov-08 22:30N 40°39' W 074°11'0 0.2
2017-Nov-08 22:00N 40°39' W 074°12'2 3.6
2017-Nov-08 21:30N 40°39' W 074°09'2 3.7
2017-Nov-08 21:01N 40°39' W 074°07'2 3.4
2017-Nov-08 20:31N 40°39' W 074°05'3 5.4
2017-Nov-08 20:01N 40°41' W 074°02'2 4.7
2017-Nov-08 19:31N 40°44' W 074°02'2 3.7
2017-Nov-08 19:01N 40°42' W 074°00'1 2.3
2017-Nov-08 18:31N 40°42' W 073°59'0 0.2
2017-Nov-08 18:01N 40°42' W 073°59'0 0.7
2017-Nov-08 17:31N 40°43' W 073°58'2 4.6
2017-Nov-08 17:01N 40°43' W 074°01'1 2.4
2017-Nov-08 16:30N 40°44' W 074°02'0 0.1
2017-Nov-08 16:00N 40°44' W 074°02'0 0.1
2017-Nov-08 15:31N 40°44' W 074°02'1 1.1
2017-Nov-08 15:01N 40°43' W 074°01'2 4.3
2017-Nov-08 14:31N 40°42' W 073°59'0 0.5
2017-Nov-08 14:01N 40°42' W 073°59'1 2.8
2017-Nov-08 13:31N 40°44' W 073°58'2 3.8
2017-Nov-08 13:00N 40°45' W 073°57'1 2.7
2017-Nov-08 12:30N 40°47' W 073°56'0 0.6
2017-Nov-08 12:00N 40°47' W 073°57'0 0.2
2017-Nov-08 11:30N 40°47' W 073°56'2 3.9
2017-Nov-08 11:01N 40°45' W 073°58'2 3.7
2017-Nov-08 10:31N 40°43' W 073°58'1 2.6
2017-Nov-08 10:00N 40°42' W 073°59'1 2.8
2017-Nov-08 09:31N 40°41' W 074°00'0 0.9
2017-Nov-08 09:01N 40°41' W 074°01'3 5.2
2017-Nov-08 08:31N 40°40' W 074°04'3 5.7
2017-Nov-08 08:01N 40°39' W 074°07'2 4.6
2017-Nov-08 07:30N 40°39' W 074°10'0 0.0
2017-Nov-07 19:37N 40°39' W 074°10'1 4.8
2017-Nov-07 19:30N 40°39' W 074°10'3 6.4
2017-Nov-07 19:00N 40°39' W 074°06'4 8.5
2017-Nov-07 18:30N 40°41' W 074°01'5 9.6
2017-Nov-07 18:00N 40°45' W 073°58'2 3.3
2017-Nov-07 17:29N 40°47' W 073°57'0 0.1
2017-Nov-07 17:00N 40°47' W 073°57'0 0.1
2017-Nov-07 16:27N 40°47' W 073°57'1 3.1
2017-Nov-07 16:00N 40°46' W 073°57'4 8.2
2017-Nov-07 15:30N 40°42' W 074°00'4 7.1
2017-Nov-07 15:00N 40°40' W 074°04'3 6.7
2017-Nov-07 14:30N 40°39' W 074°08'2 3.6
2017-Nov-07 14:00N 40°39' W 074°10'0 0.0
2017-Nov-07 13:30N 40°39' W 074°10'  

Dump ship's entire track history